createdAt,value
2018-12-02T00:00:38.326Z,20.27
2018-12-02T00:03:08.263Z,23.00
2018-12-02T00:05:37.561Z,17.03
2018-12-02T00:08:07.049Z,21.73
2018-12-02T00:10:36.183Z,21.20
2018-12-02T00:13:04.895Z,25.57
2018-12-02T00:15:34.409Z,22.97
2018-12-02T00:18:02.892Z,25.83
2018-12-02T00:20:31.383Z,26.37
2018-12-02T00:22:59.875Z,20.27
2018-12-02T00:25:28.364Z,19.73
2018-12-02T00:27:58.313Z,15.57
2018-12-02T00:30:27.913Z,10.50
2018-12-02T00:32:56.457Z,10.73
2018-12-02T00:35:24.918Z,8.47
2018-12-02T00:37:55.576Z,16.60
2018-12-02T00:40:24.380Z,24.13
2018-12-02T00:42:54.820Z,16.70
2018-12-02T00:45:24.466Z,17.17
2018-12-02T00:47:52.934Z,17.27
2018-12-02T00:50:21.506Z,17.90
2018-12-02T00:52:51.388Z,19.30
2018-12-02T00:55:21.292Z,14.47
2018-12-02T00:57:49.830Z,14.80
2018-12-02T01:00:18.331Z,21.20
2018-12-02T01:02:47.983Z,21.20
2018-12-02T01:05:18.418Z,32.40
2018-12-02T01:07:46.915Z,26.60
2018-12-02T01:10:16.705Z,24.80
2018-12-02T01:12:45.730Z,19.53
2018-12-02T01:15:15.370Z,45.50
2018-12-02T01:17:44.009Z,30.20
2018-12-02T01:20:14.513Z,55.50
2018-12-02T01:22:43.226Z,92.20
2018-12-02T01:25:12.527Z,68.57
2018-12-02T01:27:41.396Z,99.93
2018-12-02T01:30:16.716Z,62.23
2018-12-02T01:32:45.429Z,85.90
2018-12-02T01:35:14.897Z,18.57
2018-12-02T01:37:43.368Z,31.17
2018-12-02T01:40:13.009Z,15.33
2018-12-02T01:42:41.562Z,10.37
2018-12-02T01:45:15.091Z,7.47
2018-12-02T01:47:43.600Z,11.40
2018-12-02T01:50:16.999Z,17.17
2018-12-02T01:52:46.679Z,27.83
2018-12-02T01:55:15.195Z,18.67
2018-12-02T01:57:43.733Z,18.20
2018-12-02T02:00:15.442Z,16.70
2018-12-02T02:02:44.112Z,11.53
2018-12-02T02:05:12.778Z,10.33
2018-12-02T02:07:41.241Z,7.83
2018-12-02T02:10:15.674Z,10.33
2018-12-02T02:12:44.142Z,8.17
2018-12-02T02:15:13.881Z,7.10
2018-12-02T02:17:42.439Z,6.90
2018-12-02T02:20:12.901Z,5.73
2018-12-02T02:22:41.502Z,6.57
2018-12-02T02:25:11.073Z,5.80
2018-12-02T02:27:40.256Z,6.97
2018-12-02T02:30:13.471Z,7.47
2018-12-02T02:32:41.944Z,6.33
2018-12-02T02:35:10.847Z,6.90
2018-12-02T02:37:39.863Z,7.00
2018-12-02T02:40:13.647Z,11.10
2018-12-02T02:42:42.138Z,9.73
2018-12-02T02:45:11.656Z,8.47
2018-12-02T02:47:40.127Z,8.10
2018-12-02T02:50:20.413Z,15.30
2018-12-02T02:52:56.020Z,18.87
2018-12-02T02:55:24.472Z,10.67
2018-12-02T02:57:52.979Z,20.17
2018-12-02T03:00:22.472Z,21.00
2018-12-02T03:02:51.082Z,10.57
2018-12-02T03:05:19.551Z,19.93
2018-12-02T03:07:48.273Z,18.37
2018-12-02T03:10:17.773Z,15.70
2018-12-02T03:12:48.187Z,10.20
2018-12-02T03:15:17.635Z,17.53
2018-12-02T03:17:46.100Z,15.03
2018-12-02T03:20:21.416Z,10.37
2018-12-02T03:22:51.711Z,15.40
2018-12-02T03:25:21.233Z,19.37
2018-12-02T03:27:49.721Z,25.27
2018-12-02T03:30:23.074Z,14.00
2018-12-02T03:32:51.594Z,8.73
2018-12-02T03:35:22.074Z,9.13
2018-12-02T03:37:51.127Z,10.00
2018-12-02T03:40:20.815Z,21.37
2018-12-02T03:42:50.106Z,14.30
2018-12-02T03:45:19.622Z,18.30
2018-12-02T03:47:48.168Z,15.63
2018-12-02T03:50:22.551Z,22.70
2018-12-02T03:52:51.046Z,22.23
2018-12-02T03:55:19.554Z,21.17
2018-12-02T03:57:48.238Z,26.53
2018-12-02T04:00:26.631Z,23.23
2018-12-02T04:02:56.224Z,22.17
2018-12-02T04:05:25.727Z,19.57
2018-12-02T04:07:54.453Z,15.07
2018-12-02T04:10:22.997Z,23.00
2018-12-02T04:12:52.603Z,15.07
2018-12-02T04:15:24.084Z,4.27
2018-12-02T04:17:52.565Z,2.70
2018-12-02T04:20:21.511Z,3.40
2018-12-02T04:22:51.017Z,15.80
2018-12-02T04:25:26.878Z,21.37
2018-12-02T04:27:55.370Z,4.57
2018-12-02T04:30:24.306Z,2.30
2018-12-02T04:32:53.500Z,2.83
2018-12-02T04:35:23.023Z,3.30
2018-12-02T04:37:51.596Z,3.30
2018-12-02T04:40:20.077Z,3.60
2018-12-02T04:42:48.748Z,2.80
2018-12-02T04:45:18.293Z,3.27
2018-12-02T04:47:47.109Z,3.53
2018-12-02T04:50:19.483Z,3.10
2018-12-02T04:52:47.945Z,2.60
2018-12-02T04:55:16.445Z,2.87
2018-12-02T04:57:44.958Z,3.13
2018-12-02T05:00:17.486Z,4.07
2018-12-02T05:02:49.719Z,2.90
2018-12-02T05:05:20.414Z,2.60
2018-12-02T05:07:48.904Z,3.80
2018-12-02T05:10:18.472Z,3.60
2018-12-02T05:12:47.343Z,3.93
2018-12-02T05:15:16.758Z,4.00
2018-12-02T05:17:45.253Z,4.13
2018-12-02T05:20:15.772Z,5.40
2018-12-02T05:22:44.331Z,4.87
2018-12-02T05:25:17.371Z,5.13
2018-12-02T05:27:42.870Z,5.47
2018-12-02T05:30:14.821Z,5.83
2018-12-02T05:32:43.904Z,5.63
2018-12-02T05:35:13.513Z,6.53
2018-12-02T05:37:42.166Z,6.57
2018-12-02T05:40:14.706Z,6.60
2018-12-02T05:42:43.314Z,6.20
2018-12-02T05:45:13.680Z,6.80
2018-12-02T05:47:42.227Z,5.83
2018-12-02T05:50:26.152Z,6.27
2018-12-02T05:52:56.761Z,5.57
2018-12-02T05:55:27.359Z,6.40
2018-12-02T05:57:55.829Z,6.47
2018-12-02T06:00:24.318Z,7.70
2018-12-02T06:02:52.785Z,7.77
2018-12-02T06:05:21.250Z,7.97
2018-12-02T06:07:49.742Z,9.07
2018-12-02T06:10:19.381Z,7.90
2018-12-02T06:12:47.849Z,8.37
2018-12-02T06:15:18.264Z,8.57
2018-12-02T06:17:46.895Z,9.00
2018-12-02T06:20:22.617Z,9.43
2018-12-02T06:22:53.046Z,9.30
2018-12-02T06:25:21.589Z,10.13
2018-12-02T06:27:50.101Z,10.27
2018-12-02T06:30:21.513Z,9.13
2018-12-02T06:32:53.194Z,8.03
2018-12-02T06:35:21.691Z,6.80
2018-12-02T06:37:50.863Z,6.00
2018-12-02T06:40:23.498Z,5.90
2018-12-02T06:42:52.521Z,5.90
2018-12-02T06:45:21.255Z,5.03
2018-12-02T06:47:49.802Z,5.13
2018-12-02T06:50:20.486Z,4.63
2018-12-02T06:52:48.931Z,5.23
2018-12-02T06:55:36.398Z,5.00
2018-12-02T06:59:42.263Z,5.57
2018-12-02T07:02:27.131Z,6.70
2018-12-02T07:04:55.614Z,6.80
2018-12-02T07:07:24.090Z,7.40
2018-12-02T07:09:52.561Z,7.50
2018-12-02T07:12:21.126Z,7.00
2018-12-02T07:14:49.636Z,7.70
2018-12-02T07:17:18.594Z,7.50
2018-12-02T07:19:49.422Z,6.43
2018-12-02T07:22:25.437Z,6.00
2018-12-02T07:24:56.281Z,5.83
2018-12-02T07:27:24.783Z,5.67
2018-12-02T07:29:53.263Z,4.80
2018-12-02T07:32:21.769Z,4.33
2018-12-02T07:34:50.375Z,3.00
2018-12-02T07:37:21.637Z,5.50
2018-12-02T07:39:59.771Z,3.77
2018-12-02T07:42:28.241Z,7.43
2018-12-02T07:44:56.785Z,7.00
2018-12-02T07:47:25.253Z,5.27
2018-12-02T07:49:53.751Z,5.43
2018-12-02T07:52:22.247Z,4.10
2018-12-02T07:54:50.725Z,5.23
2018-12-02T07:57:19.192Z,4.40
2018-12-02T07:59:47.832Z,4.70
2018-12-02T08:02:16.567Z,7.70
2018-12-02T08:04:45.041Z,3.70
2018-12-02T08:07:13.493Z,3.40
2018-12-02T08:09:41.972Z,4.20
2018-12-02T08:12:10.506Z,10.73
2018-12-02T08:14:38.980Z,11.20
2018-12-02T08:17:09.678Z,6.27
2018-12-02T08:19:38.195Z,4.13
2018-12-02T08:22:07.089Z,4.30
2018-12-02T08:24:35.723Z,3.80
2018-12-02T08:27:04.179Z,8.27
2018-12-02T08:29:33.387Z,3.90
2018-12-02T08:32:02.571Z,5.97
2018-12-02T08:34:31.812Z,5.93
2018-12-02T08:37:01.157Z,8.13
2018-12-02T08:39:29.873Z,5.67
2018-12-02T08:41:58.340Z,6.10
2018-12-02T08:44:26.815Z,5.43
2018-12-02T08:46:55.328Z,7.20
2018-12-02T08:49:23.994Z,5.97
2018-12-02T08:51:52.566Z,4.57
2018-12-02T08:54:21.072Z,5.63
2018-12-02T08:56:49.561Z,3.70
2018-12-02T08:59:18.154Z,4.73
2018-12-02T09:01:46.669Z,3.73
2018-12-02T09:04:15.186Z,4.33
2018-12-02T09:06:43.674Z,4.13
2018-12-02T09:09:12.360Z,3.30
2018-12-02T09:11:40.989Z,4.60
2018-12-02T09:14:09.448Z,5.00
2018-12-02T09:16:37.908Z,4.50
2018-12-02T09:19:06.626Z,6.17
2018-12-02T09:21:35.098Z,5.37
2018-12-02T09:24:03.576Z,7.27
2018-12-02T09:26:32.060Z,7.40
2018-12-02T09:29:01.530Z,6.63
2018-12-02T09:31:29.981Z,8.43
2018-12-02T09:33:58.485Z,9.27
2018-12-02T09:36:27.031Z,8.07
2018-12-02T09:38:55.637Z,7.47
2018-12-02T09:41:24.087Z,8.40
2018-12-02T09:43:55.524Z,7.30
2018-12-02T09:46:24.005Z,9.87
2018-12-02T09:48:52.519Z,9.33
2018-12-02T09:51:21.136Z,9.77
2018-12-02T09:53:49.602Z,7.40
2018-12-02T09:56:18.083Z,7.60
2018-12-02T09:58:46.571Z,9.93
2018-12-02T10:01:15.038Z,7.57
2018-12-02T10:03:43.612Z,9.80
2018-12-02T10:06:12.252Z,9.03
2018-12-02T10:08:40.736Z,10.10
2018-12-02T10:11:09.284Z,11.40
2018-12-02T10:13:37.758Z,6.73
2018-12-02T10:16:06.527Z,10.90
2018-12-02T10:18:35.034Z,11.90
2018-12-02T10:21:03.725Z,10.50
2018-12-02T10:23:32.258Z,17.77
2018-12-02T10:26:00.772Z,10.13
2018-12-02T10:28:29.294Z,11.43
2018-12-02T10:30:57.778Z,8.97
2018-12-02T10:33:26.324Z,16.50
2018-12-02T10:35:54.880Z,13.37
2018-12-02T10:38:23.370Z,12.30
2018-12-02T10:40:51.844Z,9.50
2018-12-02T10:43:20.346Z,11.30
2018-12-02T10:45:48.856Z,10.07
2018-12-02T10:48:17.324Z,13.00
2018-12-02T10:50:45.965Z,14.23
2018-12-02T10:53:17.322Z,11.60
2018-12-02T10:55:50.013Z,12.13
2018-12-02T10:58:35.726Z,9.70
2018-12-02T11:01:10.424Z,8.13
2018-12-02T11:03:38.906Z,7.10
2018-12-02T11:06:07.468Z,8.67
2018-12-02T11:08:35.962Z,8.43
2018-12-02T11:11:05.382Z,10.13
2018-12-02T11:13:34.867Z,10.50
2018-12-02T11:16:03.492Z,9.53
2018-12-02T11:18:32.045Z,8.17
2018-12-02T11:21:00.738Z,9.93
2018-12-02T11:23:29.529Z,10.97
2018-12-02T11:25:58.535Z,8.40
2018-12-02T11:28:27.091Z,9.87
2018-12-02T11:30:56.545Z,11.10
2018-12-02T11:33:25.058Z,7.50
2018-12-02T11:35:53.550Z,8.97
2018-12-02T11:38:22.037Z,11.87
2018-12-02T11:40:50.543Z,10.03
2018-12-02T11:43:19.034Z,10.30
2018-12-02T11:45:47.517Z,9.67
2018-12-02T11:48:16.120Z,9.57
2018-12-02T11:50:44.611Z,9.37
2018-12-02T11:53:13.106Z,7.23
2018-12-02T11:55:41.707Z,5.93
2018-12-02T11:58:10.176Z,7.43
2018-12-02T12:00:40.308Z,9.20
2018-12-02T12:03:08.812Z,5.13
2018-12-02T12:05:38.487Z,9.07
2018-12-02T12:08:09.814Z,4.70
2018-12-02T12:10:38.326Z,4.97
2018-12-02T12:13:07.044Z,9.27
2018-12-02T12:15:36.466Z,6.47
2018-12-02T12:18:05.394Z,5.23
2018-12-02T12:20:36.784Z,6.73
2018-12-02T12:23:05.645Z,5.30
2018-12-02T12:25:34.454Z,9.10
2018-12-02T12:28:03.051Z,5.23
2018-12-02T12:30:32.396Z,5.33
2018-12-02T12:33:01.068Z,7.03
2018-12-02T12:35:29.520Z,6.20
2018-12-02T12:37:58.075Z,6.70
2018-12-02T12:40:31.927Z,6.07
2018-12-02T12:43:05.175Z,4.63
2018-12-02T12:45:33.659Z,5.20
2018-12-02T12:48:02.257Z,5.50
2018-12-02T12:50:30.772Z,5.53
2018-12-02T12:52:59.235Z,5.27
2018-12-02T12:55:29.013Z,4.80
2018-12-02T12:57:56.354Z,5.53
2018-12-02T13:00:25.321Z,3.73
2018-12-02T13:02:53.836Z,4.43
2018-12-02T13:05:23.760Z,6.37
2018-12-02T13:07:52.837Z,4.80
2018-12-02T13:10:21.319Z,7.33
2018-12-02T13:12:49.822Z,5.47
2018-12-02T13:15:22.976Z,3.50
2018-12-02T13:17:54.399Z,4.37
2018-12-02T13:20:23.239Z,5.27
2018-12-02T13:22:51.918Z,4.63
2018-12-02T13:25:20.406Z,3.57
2018-12-02T13:27:49.087Z,6.73
2018-12-02T13:30:18.726Z,4.20
2018-12-02T13:32:48.578Z,4.63
2018-12-02T13:35:17.054Z,4.03
2018-12-02T13:37:45.690Z,4.57
2018-12-02T13:40:18.451Z,5.57
2018-12-02T13:42:54.359Z,4.70
2018-12-02T13:45:24.070Z,5.27
2018-12-02T13:47:52.570Z,3.53
2018-12-02T13:50:21.617Z,2.50
2018-12-02T13:52:51.414Z,3.93
2018-12-02T13:55:21.237Z,4.50
2018-12-02T13:57:49.920Z,8.23
2018-12-02T14:00:21.443Z,7.03
2018-12-02T14:02:54.337Z,4.47
2018-12-02T14:05:22.839Z,5.83
2018-12-02T14:07:51.328Z,4.57
2018-12-02T14:10:19.795Z,5.27
2018-12-02T14:12:54.725Z,5.60
2018-12-02T14:15:30.384Z,3.30
2018-12-02T14:18:02.761Z,5.30
2018-12-02T14:20:31.253Z,5.93
2018-12-02T14:22:59.739Z,6.13
2018-12-02T14:25:28.468Z,7.07
2018-12-02T14:27:56.949Z,6.50
2018-12-02T14:30:25.479Z,6.33
2018-12-02T14:32:53.949Z,5.33
2018-12-02T14:35:22.419Z,7.17
2018-12-02T14:37:51.088Z,5.63
2018-12-02T14:40:19.584Z,5.97
2018-12-02T14:42:48.110Z,5.33
2018-12-02T14:45:17.561Z,7.13
2018-12-02T14:47:46.081Z,14.53
2018-12-02T14:50:16.632Z,5.37
2018-12-02T14:52:46.839Z,6.73
2018-12-02T14:55:16.875Z,4.20
2018-12-02T14:57:45.378Z,4.53
2018-12-02T15:00:15.934Z,5.83
2018-12-02T15:02:44.732Z,6.60
2018-12-02T15:05:13.850Z,4.67
2018-12-02T15:07:44.312Z,6.13
2018-12-02T15:10:15.590Z,8.47
2018-12-02T15:12:45.024Z,5.10
2018-12-02T15:15:14.725Z,7.93
2018-12-02T15:17:43.902Z,6.10
2018-12-02T15:20:15.523Z,5.33
2018-12-02T15:22:44.017Z,8.73
2018-12-02T15:25:13.588Z,8.37
2018-12-02T15:27:42.719Z,8.00
2018-12-02T15:30:14.278Z,10.53
2018-12-02T15:32:44.868Z,7.90
2018-12-02T15:35:13.412Z,7.53
2018-12-02T15:37:42.185Z,7.13
2018-12-02T15:40:15.008Z,7.63
2018-12-02T15:42:46.137Z,9.63
2018-12-02T15:45:15.477Z,10.93
2018-12-02T15:47:44.164Z,7.00
2018-12-02T15:50:18.626Z,8.13
2018-12-02T15:52:47.503Z,9.70
2018-12-02T15:55:18.592Z,11.17
2018-12-02T15:57:47.258Z,9.50
2018-12-02T16:00:19.017Z,6.03
2018-12-02T16:02:47.518Z,6.80
2018-12-02T16:05:16.028Z,5.47
2018-12-02T16:07:44.566Z,6.23
2018-12-02T16:10:13.958Z,4.07
2018-12-02T16:12:47.580Z,6.70
2018-12-02T16:15:17.396Z,7.47
2018-12-02T16:17:46.959Z,9.50
2018-12-02T16:20:17.132Z,5.37
2018-12-02T16:22:45.650Z,7.47
2018-12-02T16:25:14.149Z,7.63
2018-12-02T16:27:42.658Z,8.43
2018-12-02T16:30:14.353Z,6.60
2018-12-02T16:32:43.911Z,12.43
2018-12-02T16:35:13.532Z,11.67
2018-12-02T16:37:42.217Z,10.80
2018-12-02T16:40:13.384Z,11.87
2018-12-02T16:42:41.918Z,10.10
2018-12-02T16:45:12.579Z,9.07
2018-12-02T16:47:41.662Z,10.20
2018-12-02T16:50:18.049Z,9.43
2018-12-02T16:52:46.559Z,7.23
2018-12-02T16:55:17.586Z,7.83
2018-12-02T16:59:54.723Z,10.73
2018-12-02T17:02:23.489Z,7.13
2018-12-02T17:04:52.074Z,9.10
2018-12-02T17:07:20.592Z,6.00
2018-12-02T17:09:49.064Z,7.57
2018-12-02T17:12:17.774Z,4.90
2018-12-02T17:14:46.272Z,7.20
2018-12-02T17:17:14.878Z,5.03
2018-12-02T17:19:43.370Z,8.10
2018-12-02T17:22:11.910Z,5.57
2018-12-02T17:24:40.402Z,6.53
2018-12-02T17:27:08.929Z,8.20
2018-12-02T17:29:41.426Z,6.57
2018-12-02T17:32:10.021Z,4.23
2018-12-02T17:34:38.500Z,6.60
2018-12-02T17:37:07.307Z,4.57
2018-12-02T17:39:39.756Z,4.23
2018-12-02T17:42:10.225Z,5.73
2018-12-02T17:44:38.888Z,7.53
2018-12-02T17:47:07.785Z,4.87
2018-12-02T17:49:36.271Z,10.47
2018-12-02T17:52:05.516Z,7.17
2018-12-02T17:54:33.992Z,8.30
2018-12-02T17:57:02.486Z,5.53
2018-12-02T17:59:30.990Z,8.40
2018-12-02T18:01:59.471Z,7.20
2018-12-02T18:04:28.000Z,7.73
2018-12-02T18:06:56.490Z,9.97
2018-12-02T18:09:25.029Z,5.80
2018-12-02T18:11:53.607Z,8.37
2018-12-02T18:14:22.085Z,8.93
2018-12-02T18:16:50.589Z,10.67
2018-12-02T18:19:19.112Z,7.83
2018-12-02T18:21:47.886Z,10.50
2018-12-02T18:24:16.530Z,9.90
2018-12-02T18:26:45.061Z,10.87
2018-12-02T18:29:13.564Z,8.40
2018-12-02T18:31:42.246Z,8.17
2018-12-02T18:34:10.756Z,12.00
2018-12-02T18:36:39.930Z,11.77
2018-12-02T18:39:11.833Z,9.77
2018-12-02T18:41:43.483Z,14.23
2018-12-02T18:44:13.982Z,11.97
2018-12-02T18:46:42.531Z,8.87
2018-12-02T18:49:11.135Z,11.97
2018-12-02T18:51:39.706Z,11.77
2018-12-02T18:54:09.618Z,11.97
2018-12-02T18:56:38.558Z,8.43
2018-12-02T18:59:07.066Z,15.97
2018-12-02T19:01:35.594Z,13.13
2018-12-02T19:04:04.382Z,13.23
2018-12-02T19:06:32.890Z,13.73
2018-12-02T19:09:01.438Z,17.07
2018-12-02T19:11:30.007Z,10.27
2018-12-02T19:13:58.496Z,13.80
2018-12-02T19:16:26.966Z,12.13
2018-12-02T19:18:55.537Z,14.23
2018-12-02T19:21:25.984Z,14.30
2018-12-02T19:23:56.013Z,12.27
2018-12-02T19:26:24.558Z,12.30
2018-12-02T19:28:53.249Z,11.50
2018-12-02T19:31:21.767Z,17.83
2018-12-02T19:33:52.253Z,18.90
2018-12-02T19:36:54.991Z,13.10
2018-12-02T19:39:23.469Z,9.63
2018-12-02T19:41:52.233Z,11.60
2018-12-02T19:44:20.727Z,10.00
2018-12-02T19:46:49.219Z,11.50
2018-12-02T19:49:17.767Z,6.57
2018-12-02T19:51:46.260Z,8.93
2018-12-02T19:54:14.752Z,11.10
2018-12-02T19:56:43.259Z,7.23
2018-12-02T19:59:11.939Z,6.70
2018-12-02T20:01:40.422Z,7.57
2018-12-02T20:04:08.884Z,7.90
2018-12-02T20:06:37.691Z,6.83
2018-12-02T20:09:09.450Z,9.27
2018-12-02T20:11:38.140Z,7.47
2018-12-02T20:14:07.080Z,8.77
2018-12-02T20:16:35.561Z,8.17
2018-12-02T20:19:08.270Z,10.60
2018-12-02T20:21:36.790Z,9.37
2018-12-02T20:24:10.984Z,5.87
2018-12-02T20:26:39.474Z,8.60
2018-12-02T20:29:08.008Z,6.10
2018-12-02T20:31:36.648Z,6.40
2018-12-02T20:34:05.868Z,6.07
2018-12-02T20:36:34.340Z,6.83
2018-12-02T20:39:03.082Z,5.37
2018-12-02T20:41:31.574Z,5.53
2018-12-02T20:44:00.074Z,8.37
2018-12-02T20:46:28.652Z,7.50
2018-12-02T20:48:57.142Z,8.63
2018-12-02T20:51:25.659Z,6.27
2018-12-02T20:53:54.142Z,7.87
2018-12-02T20:56:22.712Z,5.70
2018-12-02T20:58:51.396Z,7.87
2018-12-02T21:01:19.862Z,5.23
2018-12-02T21:03:49.107Z,7.10
2018-12-02T21:06:19.480Z,7.00
2018-12-02T21:08:48.190Z,6.50
2018-12-02T21:11:16.836Z,7.77
2018-12-02T21:13:45.346Z,5.53
2018-12-02T21:16:13.861Z,8.20
2018-12-02T21:18:42.334Z,8.77
2018-12-02T21:21:10.990Z,8.07
2018-12-02T21:23:39.492Z,8.97
2018-12-02T21:26:09.365Z,10.90
2018-12-02T21:28:39.075Z,8.13
2018-12-02T21:31:07.767Z,8.23
2018-12-02T21:33:36.279Z,8.97
2018-12-02T21:36:04.859Z,7.77
2018-12-02T21:38:33.351Z,11.20
2018-12-02T21:41:01.826Z,12.83
2018-12-02T21:43:30.341Z,14.20
2018-12-02T21:45:58.924Z,16.20
2018-12-02T21:48:27.397Z,12.80
2018-12-02T21:50:56.648Z,16.20
2018-12-02T21:53:25.242Z,14.63
2018-12-02T21:55:54.052Z,10.87
2018-12-02T21:58:22.820Z,9.50
2018-12-02T22:00:56.581Z,12.77
2018-12-02T22:03:25.188Z,11.80
2018-12-02T22:05:53.687Z,15.17
2018-12-02T22:08:22.291Z,16.27
2018-12-02T22:10:51.483Z,16.47
2018-12-02T22:13:19.967Z,17.00
2018-12-02T22:15:48.478Z,15.43
2018-12-02T22:18:17.040Z,14.67
2018-12-02T22:20:45.528Z,14.33
2018-12-02T22:23:14.082Z,12.60
2018-12-02T22:25:42.802Z,12.30
2018-12-02T22:28:11.558Z,14.77
2018-12-02T22:30:40.118Z,14.07
2018-12-02T22:33:08.612Z,16.33
2018-12-02T22:35:37.092Z,14.27
2018-12-02T22:38:05.792Z,11.23
2018-12-02T22:40:34.388Z,13.73
2018-12-02T22:43:03.188Z,9.93
2018-12-02T22:45:31.658Z,12.90
2018-12-02T22:48:00.136Z,14.13
2018-12-02T22:50:29.304Z,13.90
2018-12-02T22:52:59.096Z,12.17
2018-12-02T22:55:27.581Z,8.80
2018-12-02T22:57:56.112Z,10.43
2018-12-02T23:00:33.954Z,8.17
2018-12-02T23:03:03.822Z,10.03
2018-12-02T23:05:32.595Z,10.47
2018-12-02T23:08:01.430Z,10.77
2018-12-02T23:10:29.998Z,11.90
2018-12-02T23:12:58.655Z,8.90
2018-12-02T23:15:27.156Z,11.23
2018-12-02T23:17:55.858Z,11.57
2018-12-02T23:20:24.557Z,14.73
2018-12-02T23:22:53.158Z,14.47
2018-12-02T23:25:21.690Z,12.17
2018-12-02T23:27:50.154Z,16.60
2018-12-02T23:30:23.342Z,11.70
2018-12-02T23:32:51.810Z,17.03
2018-12-02T23:35:20.316Z,9.87
2018-12-02T23:37:48.864Z,7.37
2018-12-02T23:40:18.604Z,9.47
2018-12-02T23:42:47.076Z,11.13
2018-12-02T23:45:16.477Z,12.83
2018-12-02T23:47:44.984Z,12.57
2018-12-02T23:50:14.864Z,12.53
2018-12-02T23:52:43.497Z,9.30
2018-12-02T23:55:12.972Z,13.37
2018-12-02T23:57:41.464Z,10.30
